Terminal Aerodrome Forecast
Issued by NWS

Home | Current Version | Previous Version | Text Only | Print | Product List | Glossary On
Versions: 1 2 3 4 5 6 7 8 9 10 11 12 13 14 15 16 17 18 19
000
FTUS45 KGGW 061100
TAFSDY
TAF
KSDY 061132Z 0612/0712 29006KT P6SM BKN100
     FM061600 32009KT P6SM SCT060
     FM070200 VRB05KT 5SM HZ SCT070
      AMD LTD TO CLD VIS AND WIND=

USA.gov is the U.S. government's official web portal to all federal, state and local government web resources and services.